Time;durP1;ratioP1;P1;durP2;ratioP2;P2;SDS_P1;SDS_P2;PMS_P1;PMS_P2;Temp;Humidity;BMP_temperature;BMP_pressure;BME280_temperature;BME280_humidity;BME280_pressure;Samples;Min_cycle;Max_cycle;Signal;HPM_P1;HPM_P2
2021/10/26 00:03:18;;;;;;;27.65;10.35;;;8.50;99.90;;;;;;10365005;28;20070;-58
2021/10/26 00:08:20;;;;;;;21.92;9.43;;;8.50;99.90;;;;;;10374691;28;20080;-58
2021/10/26 00:13:23;;;;;;;17.52;8.63;;;8.60;99.90;;;;;;10378010;28;20111;-58
2021/10/26 00:18:25;;;;;;;23.00;8.90;;;8.50;99.90;;;;;;10363563;28;20065;-58
2021/10/26 00:23:27;;;;;;;23.10;9.95;;;8.60;99.90;;;;;;10376714;28;20123;-58
2021/10/26 00:28:28;;;;;;;21.88;9.90;;;8.60;99.90;;;;;;10377349;28;20069;-58
2021/10/26 00:33:30;;;;;;;19.90;10.25;;;8.70;99.90;;;;;;10366685;28;20081;-58
2021/10/26 00:38:32;;;;;;;20.90;9.75;;;8.70;99.90;;;;;;10377427;28;20546;-60
2021/10/26 00:43:34;;;;;;;20.67;9.25;;;8.70;99.90;;;;;;10376334;28;20053;-59
2021/10/26 00:48:37;;;;;;;20.98;10.38;;;8.70;99.90;;;;;;10380315;28;20464;-59
2021/10/26 00:53:38;;;;;;;20.23;9.90;;;8.80;99.90;;;;;;10377524;28;20834;-59
2021/10/26 00:58:41;;;;;;;21.58;9.70;;;8.80;99.90;;;;;;10379709;28;20099;-59
2021/10/26 01:03:42;;;;;;;28.05;10.13;;;8.90;99.90;;;;;;10378012;28;20041;-58
2021/10/26 01:08:47;;;;;;;22.77;10.13;;;8.90;99.90;;;;;;10379471;28;20046;-58
2021/10/26 01:13:50;;;;;;;22.75;9.88;;;8.90;99.90;;;;;;10375721;28;20053;-58
2021/10/26 01:18:52;;;;;;;18.92;9.68;;;8.90;99.90;;;;;;10380891;28;20046;-58
2021/10/26 01:23:54;;;;;;;23.10;9.95;;;8.90;99.90;;;;;;10365079;28;20112;-57
2021/10/26 01:28:55;;;;;;;28.77;10.77;;;8.90;99.90;;;;;;10370484;28;20634;-58
2021/10/26 01:33:57;;;;;;;26.38;10.52;;;8.80;99.90;;;;;;10376065;28;20073;-58
2021/10/26 01:38:59;;;;;;;23.80;10.35;;;8.90;99.90;;;;;;10377043;28;20444;-57
2021/10/26 01:44:01;;;;;;;22.60;10.43;;;8.90;99.90;;;;;;10374778;28;20066;-58
2021/10/26 01:49:02;;;;;;;22.63;10.95;;;8.90;99.90;;;;;;10372603;28;20103;-58
2021/10/26 01:54:05;;;;;;;19.90;9.93;;;8.90;99.90;;;;;;10373142;28;20037;-58
2021/10/26 01:59:07;;;;;;;21.77;10.57;;;8.90;99.90;;;;;;10379427;28;20072;-58
2021/10/26 02:04:09;;;;;;;24.15;10.57;;;8.90;99.90;;;;;;10376804;28;20042;-58
2021/10/26 02:09:10;;;;;;;20.48;9.45;;;8.80;99.90;;;;;;10371030;28;20472;-58
2021/10/26 02:14:12;;;;;;;20.50;10.00;;;8.70;99.90;;;;;;10378370;28;20045;-58
2021/10/26 02:19:14;;;;;;;22.65;9.68;;;8.70;99.90;;;;;;10369242;28;20050;-58
2021/10/26 02:24:17;;;;;;;20.60;10.38;;;8.70;99.90;;;;;;10355876;28;21431;-58
2021/10/26 02:29:18;;;;;;;23.55;10.15;;;8.60;99.90;;;;;;10358219;28;20684;-58
2021/10/26 02:34:20;;;;;;;21.35;10.23;;;8.60;99.90;;;;;;10373269;28;20050;-57
2021/10/26 02:39:22;;;;;;;21.90;10.85;;;8.60;99.90;;;;;;10373678;28;20143;-58
2021/10/26 02:44:24;;;;;;;20.30;9.75;;;8.50;99.90;;;;;;10371884;28;20069;-58
2021/10/26 02:49:25;;;;;;;21.92;10.85;;;8.50;99.90;;;;;;10376581;28;20057;-58
2021/10/26 02:54:28;;;;;;;26.23;10.52;;;8.50;99.90;;;;;;10366187;28;20091;-58
2021/10/26 02:59:29;;;;;;;23.27;10.00;;;8.50;99.90;;;;;;10376383;28;20139;-58
2021/10/26 03:04:34;;;;;;;23.65;11.00;;;8.50;99.90;;;;;;10372483;28;20057;-57
2021/10/26 03:09:36;;;;;;;26.25;11.60;;;8.50;99.90;;;;;;10370007;28;20107;-56
2021/10/26 03:14:38;;;;;;;26.73;10.90;;;8.50;99.90;;;;;;10371248;28;20154;-57
2021/10/26 03:19:40;;;;;;;22.55;10.77;;;8.50;99.90;;;;;;10367175;28;20065;-57
2021/10/26 03:24:42;;;;;;;22.73;10.30;;;8.50;99.90;;;;;;10373842;28;20097;-57
2021/10/26 03:29:44;;;;;;;22.48;10.75;;;8.60;99.90;;;;;;10372171;28;20472;-57
2021/10/26 03:34:46;;;;;;;19.40;10.50;;;8.60;99.90;;;;;;10366391;28;20065;-57
2021/10/26 03:39:55;;;;;;;19.95;9.30;;;8.60;99.90;;;;;;10377503;28;20168;-57
2021/10/26 03:44:57;;;;;;;26.40;9.95;;;8.60;99.90;;;;;;10368042;28;20122;-57
2021/10/26 03:49:58;;;;;;;17.98;9.75;;;8.60;99.90;;;;;;10368583;28;20144;-57
2021/10/26 03:55:00;;;;;;;18.33;9.35;;;8.60;99.90;;;;;;10375592;28;20131;-58
2021/10/26 04:00:04;;;;;;;21.10;10.18;;;8.60;99.90;;;;;;10372572;28;20488;-57
2021/10/26 04:10:58;;;;;;;24.15;9.65;;;8.70;99.90;;;;;;10334120;28;20050;-56
2021/10/26 04:15:57;;;;;;;19.88;9.38;;;8.70;99.90;;;;;;10368605;28;20386;-57
2021/10/26 04:20:59;;;;;;;19.60;8.80;;;8.70;99.90;;;;;;10371599;28;20128;-57
2021/10/26 04:26:02;;;;;;;19.73;9.35;;;8.70;99.90;;;;;;10371714;28;20159;-56
2021/10/26 04:31:05;;;;;;;20.88;10.50;;;8.80;99.90;;;;;;10363895;28;20049;-56
2021/10/26 04:36:07;;;;;;;20.65;10.13;;;8.80;99.90;;;;;;10367193;28;20115;-57
2021/10/26 04:41:11;;;;;;;20.25;9.23;;;8.80;99.90;;;;;;10372848;28;20150;-57
2021/10/26 04:46:12;;;;;;;21.20;9.07;;;8.80;99.90;;;;;;10369020;28;20050;-57
2021/10/26 04:51:14;;;;;;;21.13;9.30;;;8.90;99.90;;;;;;10370304;28;20044;-57
2021/10/26 04:56:16;;;;;;;21.30;10.18;;;8.90;99.90;;;;;;10349288;28;20141;-57
2021/10/26 05:01:17;;;;;;;22.85;9.43;;;8.90;99.90;;;;;;10377314;28;20054;-58
2021/10/26 05:06:19;;;;;;;18.75;9.35;;;8.90;99.90;;;;;;10380143;28;20064;-57
2021/10/26 05:11:23;;;;;;;20.30;10.48;;;8.90;99.90;;;;;;10377847;28;20624;-57
2021/10/26 05:16:29;;;;;;;19.73;10.60;;;8.90;99.90;;;;;;10380140;28;20053;-56
2021/10/26 05:21:31;;;;;;;19.17;9.23;;;8.90;99.90;;;;;;10379952;28;20124;-57
2021/10/26 05:26:34;;;;;;;16.73;8.82;;;9.00;99.90;;;;;;10373396;28;20408;-57
2021/10/26 05:31:38;;;;;;;26.55;10.38;;;8.90;99.90;;;;;;10383767;28;20404;-57
2021/10/26 05:36:39;;;;;;;20.95;10.02;;;8.90;99.90;;;;;;10355060;28;20427;-58
2021/10/26 05:41:41;;;;;;;15.90;7.93;;;9.00;99.90;;;;;;10376027;28;20080;-59
2021/10/26 05:46:43;;;;;;;17.83;8.80;;;9.00;99.90;;;;;;10376241;28;20120;-58
2021/10/26 05:51:45;;;;;;;15.45;8.45;;;9.00;99.90;;;;;;10380323;28;20132;-58
2021/10/26 05:56:47;;;;;;;18.48;9.00;;;9.00;99.90;;;;;;10375440;28;20084;-62
2021/10/26 06:01:49;;;;;;;16.88;8.65;;;9.00;99.90;;;;;;10358289;28;20454;-62
2021/10/26 06:06:51;;;;;;;15.63;8.68;;;9.10;99.90;;;;;;10375451;28;20052;-62
2021/10/26 06:11:53;;;;;;;18.15;9.70;;;9.10;99.90;;;;;;10369581;28;20212;-60
2021/10/26 06:16:54;;;;;;;20.77;8.18;;;9.10;99.90;;;;;;10375358;28;20069;-61
2021/10/26 06:21:56;;;;;;;15.43;8.13;;;9.10;99.90;;;;;;10378647;28;20114;-61
2021/10/26 06:26:58;;;;;;;18.23;8.38;;;9.20;99.90;;;;;;10381927;28;20107;-61
2021/10/26 06:32:00;;;;;;;15.60;8.60;;;9.20;99.90;;;;;;10379360;28;20045;-62
2021/10/26 06:37:01;;;;;;;14.68;7.85;;;9.30;99.90;;;;;;10371379;28;20054;-60
2021/10/26 06:42:03;;;;;;;14.23;6.68;;;9.30;99.90;;;;;;10377285;28;20052;-64
2021/10/26 06:47:05;;;;;;;13.65;6.95;;;9.40;99.90;;;;;;10362185;28;20049;-64
2021/10/26 06:52:07;;;;;;;16.50;7.43;;;9.50;99.90;;;;;;10366494;28;20096;-64
2021/10/26 06:57:09;;;;;;;14.02;7.38;;;9.60;99.90;;;;;;10377358;28;20057;-62
2021/10/26 07:02:11;;;;;;;14.20;6.55;;;9.70;99.90;;;;;;10372007;28;20049;-62
2021/10/26 07:07:13;;;;;;;16.40;6.53;;;9.80;99.90;;;;;;10370542;28;20087;-62
2021/10/26 07:12:15;;;;;;;15.40;6.30;;;9.90;99.90;;;;;;10371207;28;20484;-62
2021/10/26 07:17:17;;;;;;;16.00;7.50;;;9.90;99.90;;;;;;10372575;28;20056;-62
2021/10/26 07:22:19;;;;;;;16.40;6.35;;;10.00;99.90;;;;;;10372550;28;20069;-62
2021/10/26 07:27:21;;;;;;;18.25;7.97;;;10.10;99.90;;;;;;10375461;28;20492;-62
2021/10/26 07:32:22;;;;;;;14.65;7.07;;;10.20;99.90;;;;;;10371930;28;20103;-61
2021/10/26 07:37:30;;;;;;;10.90;6.50;;;10.30;99.90;;;;;;10372356;28;20104;-61
2021/10/26 07:42:31;;;;;;;15.95;6.97;;;10.30;99.90;;;;;;10370677;28;20049;-61
2021/10/26 07:47:34;;;;;;;21.98;6.68;;;10.30;99.90;;;;;;10375449;28;20053;-61
2021/10/26 07:52:39;;;;;;;10.90;6.13;;;10.40;99.90;;;;;;10373973;28;20052;-61
2021/10/26 07:57:40;;;;;;;11.75;6.60;;;10.60;99.90;;;;;;10370463;28;20049;-61
2021/10/26 08:02:43;;;;;;;12.40;6.72;;;10.60;99.90;;;;;;10370719;28;20133;-61
2021/10/26 08:07:45;;;;;;;21.38;6.68;;;10.80;99.90;;;;;;10367895;28;20057;-61
2021/10/26 08:12:47;;;;;;;12.70;5.43;;;10.90;99.90;;;;;;10372492;28;20130;-61
2021/10/26 08:17:49;;;;;;;15.30;5.32;;;11.00;99.90;;;;;;10367683;28;20065;-61
2021/10/26 08:22:51;;;;;;;7.82;4.47;;;11.10;99.90;;;;;;10369918;28;20127;-60
2021/10/26 08:27:56;;;;;;;8.82;3.80;;;11.10;99.90;;;;;;10371428;28;20135;-59
2021/10/26 08:33:14;;;;;;;7.90;4.38;;;11.30;99.90;;;;;;10370979;28;20050;-61
2021/10/26 08:38:17;;;;;;;7.20;3.83;;;11.40;99.90;;;;;;10376266;28;20037;-62
2021/10/26 08:43:23;;;;;;;9.30;4.70;;;11.50;99.90;;;;;;10376874;28;20046;-59
2021/10/26 08:48:26;;;;;;;6.63;3.23;;;11.60;99.90;;;;;;10378180;28;20081;-59
2021/10/26 08:53:30;;;;;;;7.45;3.40;;;11.70;99.90;;;;;;10375901;28;20469;-59
2021/10/26 08:58:33;;;;;;;8.65;3.70;;;11.80;99.90;;;;;;10374344;28;20049;-59
2021/10/26 09:03:37;;;;;;;11.43;3.97;;;11.90;99.90;;;;;;10376725;28;20130;-60
2021/10/26 09:08:42;;;;;;;8.85;4.68;;;12.00;99.90;;;;;;10374724;28;20488;-59
2021/10/26 09:19:28;;;;;;;4.90;3.28;;;12.10;99.90;;;;;;10370673;28;20049;-60
2021/10/26 09:24:32;;;;;;;6.28;4.45;;;12.10;99.90;;;;;;10377081;28;20057;-59
2021/10/26 09:29:43;;;;;;;7.38;3.97;;;12.30;99.90;;;;;;10372569;28;20046;-59
2021/10/26 09:34:56;;;;;;;9.30;4.30;;;12.50;99.90;;;;;;10377730;28;20049;-59
2021/10/26 09:39:59;;;;;;;8.02;3.42;;;12.70;99.90;;;;;;10370520;28;20058;-59
2021/10/26 09:45:03;;;;;;;6.07;3.30;;;12.90;99.90;;;;;;10379772;28;20473;-59
2021/10/26 09:50:11;;;;;;;6.82;3.05;;;12.80;99.90;;;;;;10378643;28;20536;-60
2021/10/26 09:55:20;;;;;;;4.28;2.58;;;12.80;99.90;;;;;;10355915;28;20049;-59
2021/10/26 10:00:30;;;;;;;5.65;2.90;;;12.70;99.90;;;;;;10376456;28;20100;-59
2021/10/26 10:05:42;;;;;;;3.30;1.60;;;12.80;99.90;;;;;;10363342;28;20046;-59
2021/10/26 10:10:44;;;;;;;8.57;2.53;;;13.00;99.90;;;;;;10372215;28;20045;-59
2021/10/26 10:15:47;;;;;;;9.18;2.65;;;13.20;99.90;;;;;;10374031;28;20053;-61
2021/10/26 10:20:54;;;;;;;5.10;2.42;;;13.20;99.90;;;;;;10374234;28;20127;-61
2021/10/26 10:25:57;;;;;;;6.73;2.50;;;13.30;99.90;;;;;;10378870;28;20050;-61
2021/10/26 10:31:02;;;;;;;4.70;2.60;;;13.30;99.90;;;;;;10370799;28;20057;-61
2021/10/26 10:36:07;;;;;;;6.05;2.45;;;13.30;99.90;;;;;;10375846;28;20213;-61
2021/10/26 10:41:32;;;;;;;5.78;2.78;;;13.50;99.90;;;;;;10375673;28;20099;-61
2021/10/26 10:46:56;;;;;;;4.10;1.85;;;13.60;99.90;;;;;;10375860;28;20056;-61
2021/10/26 10:52:19;;;;;;;5.82;2.00;;;13.70;99.90;;;;;;10369161;28;20073;-60
2021/10/26 10:57:33;;;;;;;8.65;1.80;;;13.80;99.90;;;;;;10375200;28;20099;-61
2021/10/26 11:02:49;;;;;;;3.53;1.52;;;14.00;99.90;;;;;;10370797;28;20045;-60
2021/10/26 11:07:51;;;;;;;3.00;1.10;;;14.10;99.90;;;;;;10374967;28;20049;-60
2021/10/26 11:13:19;;;;;;;2.38;1.00;;;14.10;99.90;;;;;;10371330;28;20069;-61
2021/10/26 11:18:33;;;;;;;3.45;1.15;;;14.20;99.90;;;;;;10368648;28;20045;-61
2021/10/26 11:23:58;;;;;;;4.85;1.67;;;14.30;99.90;;;;;;10370378;28;20062;-61
2021/10/26 11:29:02;;;;;;;2.22;1.40;;;14.50;99.90;;;;;;10361131;28;20042;-61
2021/10/26 11:34:16;;;;;;;2.97;0.70;;;14.80;99.90;;;;;;10372002;28;20412;-61
2021/10/26 11:39:18;;;;;;;1.50;0.70;;;14.90;99.90;;;;;;10354467;28;20057;-61
2021/10/26 11:44:20;;;;;;;1.77;0.82;;;15.00;99.90;;;;;;10372855;28;20123;-61
2021/10/26 11:49:25;;;;;;;5.00;1.00;;;15.00;99.90;;;;;;10370410;28;20123;-61
2021/10/26 11:54:35;;;;;;;3.38;1.00;;;15.00;99.90;;;;;;10372379;28;20107;-60
2021/10/26 11:59:38;;;;;;;3.28;0.90;;;15.00;99.90;;;;;;10370701;28;20107;-60
2021/10/26 12:04:57;;;;;;;2.35;1.02;;;15.20;99.90;;;;;;10374360;28;20045;-61
2021/10/26 12:10:06;;;;;;;4.40;1.17;;;15.30;99.90;;;;;;10373833;28;20049;-61
2021/10/26 12:15:10;;;;;;;3.58;0.98;;;15.20;99.90;;;;;;10367379;28;20108;-61
2021/10/26 12:20:20;;;;;;;2.58;0.73;;;15.80;99.30;;;;;;10372114;28;20104;-60
2021/10/26 12:25:31;;;;;;;1.98;0.80;;;16.00;98.00;;;;;;10370059;28;20570;-61
2021/10/26 12:30:40;;;;;;;0.90;0.63;;;16.20;97.80;;;;;;10374224;28;20053;-61
2021/10/26 12:35:48;;;;;;;3.20;0.98;;;16.20;95.90;;;;;;10370664;28;20049;-61
2021/10/26 12:40:51;;;;;;;3.08;0.88;;;16.10;96.30;;;;;;10371091;28;20045;-61
2021/10/26 12:45:59;;;;;;;1.73;0.90;;;16.20;97.10;;;;;;10372099;28;20135;-61
2021/10/26 12:51:02;;;;;;;3.55;0.90;;;16.20;97.00;;;;;;10369141;28;20045;-61
2021/10/26 12:56:28;;;;;;;1.17;0.73;;;16.30;97.20;;;;;;10374401;28;20049;-61
2021/10/26 13:01:36;;;;;;;8.23;0.80;;;16.20;96.60;;;;;;10364510;28;20041;-61
2021/10/26 13:06:52;;;;;;;6.10;0.60;;;16.10;95.60;;;;;;10374034;28;20049;-61
2021/10/26 13:12:10;;;;;;;3.28;0.65;;;15.90;95.40;;;;;;10367519;28;20065;-61
2021/10/26 13:17:42;;;;;;;2.47;0.43;;;16.10;95.00;;;;;;10377362;28;21055;-61
2021/10/26 13:23:05;;;;;;;0.80;0.30;;;16.20;93.10;;;;;;10375024;28;20108;-61
2021/10/26 13:28:08;;;;;;;2.47;0.40;;;16.20;92.70;;;;;;10379304;28;20052;-61
2021/10/26 13:33:10;;;;;;;1.42;0.38;;;16.00;92.50;;;;;;10376688;28;20037;-61
2021/10/26 13:38:13;;;;;;;5.40;0.63;;;16.10;92.60;;;;;;10374903;28;20143;-61
2021/10/26 13:43:15;;;;;;;4.10;0.40;;;16.10;92.40;;;;;;10377389;28;20045;-61
2021/10/26 13:48:19;;;;;;;1.60;0.40;;;16.10;92.70;;;;;;10377522;28;20112;-61
2021/10/26 13:53:21;;;;;;;1.65;0.30;;;16.00;92.30;;;;;;10378810;28;20046;-62
2021/10/26 13:58:24;;;;;;;1.35;0.68;;;16.10;91.90;;;;;;10368658;28;20104;-61
2021/10/26 14:03:25;;;;;;;0.68;0.40;;;16.10;91.00;;;;;;10372181;28;20132;-61
2021/10/26 14:08:27;;;;;;;3.25;1.30;;;16.30;91.20;;;;;;10373054;28;20053;-62
2021/10/26 14:13:30;;;;;;;1.75;0.50;;;16.50;91.10;;;;;;10372438;28;20053;-60
2021/10/26 14:18:33;;;;;;;2.83;1.02;;;16.40;90.70;;;;;;10372901;28;20054;-61
2021/10/26 14:23:38;;;;;;;2.53;0.30;;;16.30;90.00;;;;;;10357926;28;20049;-61
2021/10/26 14:28:39;;;;;;;1.02;0.30;;;16.30;90.80;;;;;;10370136;28;20053;-61
2021/10/26 14:33:42;;;;;;;2.53;0.30;;;16.20;90.30;;;;;;10359478;28;20054;-61
2021/10/26 14:59:54;;;;;;;1.90;0.50;;;16.10;90.20;;;;;;10344945;28;20045;-59
2021/10/26 15:04:56;;;;;;;1.40;0.20;;;16.00;90.40;;;;;;10373462;28;20066;-59
2021/10/26 15:10:06;;;;;;;0.63;0.30;;;15.80;90.40;;;;;;10371903;28;20054;-59
2021/10/26 15:15:09;;;;;;;3.85;0.30;;;15.80;91.20;;;;;;10373220;28;20113;-59
2021/10/26 15:20:11;;;;;;;1.63;0.20;;;15.70;91.20;;;;;;10376083;28;20408;-60
2021/10/26 15:35:37;;;;;;;0.82;0.47;;;15.20;92.30;;;;;;10374075;28;20365;-59
2021/10/26 15:40:42;;;;;;;0.55;0.22;;;15.10;92.30;;;;;;10367955;28;21027;-60
2021/10/26 15:45:45;;;;;;;3.20;0.30;;;14.90;92.70;;;;;;10372858;28;20064;-59
2021/10/26 15:50:47;;;;;;;0.50;0.32;;;14.80;93.00;;;;;;10374570;28;20061;-60
2021/10/26 15:55:48;;;;;;;2.72;0.30;;;14.50;93.70;;;;;;10377790;28;20049;-60
2021/10/26 16:00:50;;;;;;;2.53;0.40;;;14.40;94.00;;;;;;10374260;28;20496;-59
2021/10/26 16:05:52;;;;;;;1.50;0.47;;;14.20;94.00;;;;;;10370926;28;20057;-59
2021/10/26 16:11:09;;;;;;;1.58;0.35;;;14.10;94.50;;;;;;10374092;28;20049;-60
2021/10/26 16:16:35;;;;;;;1.80;0.40;;;13.90;94.80;;;;;;10372054;28;20127;-60
2021/10/26 16:21:32;;;;;;;1.50;0.70;;;13.80;95.10;;;;;;10362347;28;20404;-59
2021/10/26 16:26:46;;;;;;;2.03;0.70;;;13.70;95.60;;;;;;10366920;28;20126;-63
2021/10/26 16:31:49;;;;;;;1.80;0.52;;;13.60;95.90;;;;;;10370498;28;20041;-59
2021/10/26 16:36:51;;;;;;;4.28;0.80;;;13.40;96.60;;;;;;10374277;28;20045;-58
2021/10/26 16:42:01;;;;;;;1.85;0.50;;;13.30;97.20;;;;;;10350897;28;20053;-59
2021/10/26 16:47:10;;;;;;;1.10;0.65;;;13.20;97.70;;;;;;10351072;28;20081;-59
2021/10/26 16:52:12;;;;;;;4.35;0.60;;;13.00;98.40;;;;;;10371365;28;20064;-60
2021/10/26 16:57:14;;;;;;;1.33;0.50;;;13.00;98.80;;;;;;10381391;28;20041;-60
2021/10/26 17:02:18;;;;;;;2.22;0.57;;;12.90;99.50;;;;;;10373851;28;20057;-60
2021/10/26 17:07:20;;;;;;;2.65;0.80;;;12.80;99.90;;;;;;10377879;28;20484;-60
2021/10/26 17:12:30;;;;;;;2.20;0.70;;;12.70;99.90;;;;;;10383787;28;20041;-58
2021/10/26 17:17:33;;;;;;;4.07;0.70;;;12.60;99.90;;;;;;10370679;28;20094;-59
2021/10/26 17:22:34;;;;;;;2.42;1.02;;;12.40;99.90;;;;;;10381600;28;20542;-59
2021/10/26 17:27:36;;;;;;;2.53;0.60;;;12.30;99.90;;;;;;10381524;28;20143;-58
2021/10/26 17:32:38;;;;;;;3.38;0.75;;;12.20;99.90;;;;;;10375976;28;20053;-58
2021/10/26 17:37:39;;;;;;;7.25;1.27;;;12.10;99.90;;;;;;10377375;28;20038;-58
2021/10/26 17:42:44;;;;;;;4.07;1.55;;;12.00;99.90;;;;;;10380932;28;20085;-58
2021/10/26 17:47:47;;;;;;;2.40;1.10;;;11.80;99.90;;;;;;10379042;28;20083;-58
2021/10/26 17:52:50;;;;;;;2.90;1.27;;;11.60;99.90;;;;;;10360740;28;20081;-59
2021/10/26 17:57:54;;;;;;;4.57;1.20;;;11.50;99.90;;;;;;10375860;28;20131;-60
2021/10/26 18:02:56;;;;;;;8.50;1.50;;;11.40;99.90;;;;;;10376837;28;20139;-58
2021/10/26 18:08:00;;;;;;;3.17;0.70;;;11.30;99.90;;;;;;10378266;28;21083;-58
2021/10/26 18:13:03;;;;;;;5.32;1.00;;;11.30;99.90;;;;;;10374730;28;20042;-59
2021/10/26 18:18:06;;;;;;;3.13;0.50;;;11.30;99.90;;;;;;10376091;28;20500;-60
2021/10/26 18:23:08;;;;;;;1.95;0.90;;;11.30;99.90;;;;;;10375115;28;20103;-60
2021/10/26 18:28:09;;;;;;;2.20;0.80;;;11.20;99.90;;;;;;10375087;28;20126;-59
2021/10/26 18:33:13;;;;;;;2.97;0.80;;;11.20;99.90;;;;;;10378170;28;20095;-58
2021/10/26 18:38:15;;;;;;;6.25;1.30;;;11.10;99.90;;;;;;10374833;28;20049;-58
2021/10/26 18:43:21;;;;;;;4.55;1.30;;;11.00;99.90;;;;;;10373839;28;20060;-58
2021/10/26 18:48:23;;;;;;;3.78;1.85;;;10.90;99.90;;;;;;10369871;28;20053;-59
2021/10/26 18:53:25;;;;;;;4.32;1.70;;;10.80;99.90;;;;;;10373557;28;20049;-58
2021/10/26 18:58:26;;;;;;;4.13;1.20;;;10.70;99.90;;;;;;10378742;28;20037;-58
2021/10/26 19:03:29;;;;;;;6.10;5.60;;;10.60;99.90;;;;;;9941785;28;20057;-59
2021/10/26 19:08:38;;;;;;;9.05;6.10;;;10.50;99.90;;;;;;9715055;28;20797;-59
2021/10/26 19:13:43;;;;;;;6.43;5.57;;;10.30;99.90;;;;;;9697496;28;20041;-58
2021/10/26 19:18:47;;;;;;;5.80;5.30;;;10.30;99.90;;;;;;9705110;28;20045;-58
2021/10/26 19:23:49;;;;;;;7.15;6.43;;;10.20;99.90;;;;;;9700993;28;20440;-58
2021/10/26 19:28:50;;;;;;;6.00;5.57;;;10.10;99.90;;;;;;9694241;28;20045;-59
2021/10/26 19:33:53;;;;;;;6.97;6.38;;;10.10;99.90;;;;;;9693191;28;20925;-59
2021/10/26 19:38:54;;;;;;;8.35;6.40;;;10.00;99.90;;;;;;9693291;28;20929;-58
2021/10/26 19:43:56;;;;;;;3.95;1.67;;;10.00;99.90;;;;;;10059963;28;20050;-59
2021/10/26 19:48:58;;;;;;;5.25;1.60;;;10.00;99.90;;;;;;10371829;28;21712;-59
2021/10/26 19:54:00;;;;;;;5.68;1.67;;;10.00;99.90;;;;;;10373482;28;20323;-59
2021/10/26 19:59:02;;;;;;;5.22;1.83;;;9.90;99.90;;;;;;10374480;28;20115;-59
2021/10/26 20:04:05;;;;;;;4.57;1.50;;;9.90;99.90;;;;;;10369983;28;20058;-59
2021/10/26 20:09:08;;;;;;;10.23;2.30;;;9.80;99.90;;;;;;10367159;28;20053;-60
2021/10/26 20:14:13;;;;;;;4.10;1.63;;;9.70;99.90;;;;;;10370255;28;20096;-59
2021/10/26 20:19:27;;;;;;;8.60;1.77;;;9.60;99.90;;;;;;10373743;28;20111;-58
2021/10/26 20:24:46;;;;;;;6.00;1.63;;;9.50;99.90;;;;;;10371835;28;20081;-59
2021/10/26 20:29:51;;;;;;;8.10;1.80;;;9.50;99.90;;;;;;10377947;28;20073;-59
2021/10/26 20:34:53;;;;;;;4.65;1.30;;;9.50;99.90;;;;;;10383591;28;20053;-60
2021/10/26 20:39:55;;;;;;;4.22;1.58;;;9.50;99.90;;;;;;10374452;28;20092;-58
2021/10/26 20:44:57;;;;;;;5.35;1.60;;;9.50;99.90;;;;;;10378617;28;20053;-58
2021/10/26 20:50:00;;;;;;;9.20;2.03;;;9.50;99.90;;;;;;10382281;28;20052;-58
2021/10/26 20:55:02;;;;;;;7.03;1.50;;;9.40;99.90;;;;;;10374400;28;20045;-58
2021/10/26 21:00:05;;;;;;;3.88;1.58;;;9.40;99.90;;;;;;10379585;28;20107;-58
2021/10/26 21:05:07;;;;;;;4.95;1.73;;;9.30;99.90;;;;;;10384239;28;20112;-58
2021/10/26 21:10:09;;;;;;;4.20;1.55;;;9.30;99.90;;;;;;10378509;28;20061;-58
2021/10/26 21:15:11;;;;;;;4.63;1.80;;;9.20;99.90;;;;;;10363075;28;20503;-57
2021/10/26 21:20:13;;;;;;;4.88;1.90;;;9.20;99.90;;;;;;10377877;28;20049;-58
2021/10/26 21:25:17;;;;;;;9.40;2.38;;;9.10;99.90;;;;;;10380207;28;20053;-60
2021/10/26 21:30:24;;;;;;;7.03;2.13;;;9.00;99.90;;;;;;10372141;28;20058;-59
2021/10/26 21:35:27;;;;;;;4.88;1.90;;;8.90;99.90;;;;;;10372907;28;20115;-58
2021/10/26 21:40:28;;;;;;;6.63;1.88;;;8.90;99.90;;;;;;10385991;28;20037;-57
2021/10/26 21:45:30;;;;;;;4.88;1.83;;;8.80;99.90;;;;;;10374864;28;20519;-57
2021/10/26 21:50:33;;;;;;;3.72;1.48;;;8.80;99.90;;;;;;10377519;28;20077;-56
2021/10/26 21:55:35;;;;;;;4.65;1.50;;;8.70;99.90;;;;;;10378853;28;20158;-58
2021/10/26 22:00:37;;;;;;;4.13;1.33;;;8.80;99.90;;;;;;10375023;28;20084;-58
2021/10/26 22:05:39;;;;;;;6.88;1.23;;;8.80;99.90;;;;;;10377889;28;20045;-57
2021/10/26 22:10:40;;;;;;;7.53;1.40;;;8.80;99.90;;;;;;10373294;28;20114;-58
2021/10/26 22:15:43;;;;;;;3.63;1.70;;;8.70;99.90;;;;;;10376992;28;20110;-57
2021/10/26 22:20:46;;;;;;;4.78;1.52;;;8.60;99.90;;;;;;10372836;28;20123;-57
2021/10/26 22:25:48;;;;;;;3.10;1.65;;;8.50;99.90;;;;;;10375572;28;20049;-58
2021/10/26 22:30:50;;;;;;;6.38;1.35;;;8.40;99.90;;;;;;10367542;28;20104;-58
2021/10/26 22:35:52;;;;;;;5.07;1.30;;;8.30;99.90;;;;;;10374551;28;20049;-58
2021/10/26 22:40:53;;;;;;;3.67;1.33;;;8.30;99.90;;;;;;10380650;28;20072;-57
2021/10/26 22:45:55;;;;;;;3.40;1.40;;;8.20;99.90;;;;;;10376343;28;20049;-57
2021/10/26 22:50:57;;;;;;;3.22;1.45;;;8.20;99.90;;;;;;10350088;28;20045;-57
2021/10/26 22:55:59;;;;;;;3.42;1.30;;;8.20;99.90;;;;;;10378057;28;20041;-57
2021/10/26 23:01:01;;;;;;;3.88;1.33;;;8.20;99.90;;;;;;10367987;28;20107;-57
2021/10/26 23:06:03;;;;;;;2.58;1.00;;;8.10;99.90;;;;;;10376060;28;20623;-57
2021/10/26 23:11:08;;;;;;;4.43;1.50;;;8.00;99.90;;;;;;10374875;28;20056;-57
2021/10/26 23:16:10;;;;;;;6.50;1.55;;;7.90;99.90;;;;;;10370210;28;20148;-57
2021/10/26 23:21:12;;;;;;;5.18;1.13;;;7.90;99.90;;;;;;10372575;28;20133;-57
2021/10/26 23:26:14;;;;;;;8.40;1.60;;;7.80;99.90;;;;;;10371038;28;20136;-57
2021/10/26 23:31:17;;;;;;;3.63;1.25;;;7.70;99.90;;;;;;10371736;28;20049;-57
2021/10/26 23:36:19;;;;;;;4.60;1.67;;;7.70;99.90;;;;;;10355487;28;20566;-57
2021/10/26 23:41:21;;;;;;;4.15;1.45;;;7.60;99.90;;;;;;10370395;28;20123;-57
2021/10/26 23:46:24;;;;;;;4.68;1.85;;;7.60;99.90;;;;;;10372958;28;20104;-56
2021/10/26 23:51:29;;;;;;;3.63;1.90;;;7.50;99.90;;;;;;10370995;28;20041;-57
2021/10/26 23:56:31;;;;;;;3.03;1.50;;;7.50;99.90;;;;;;10366981;28;20059;-57
